CheckWX is a tool to help pilots better visualize weather data.  It is not intended as a substitute for an official pre-flight weather briefing.

04:42:21 UTC

DAUI TAF
In Salah Airport
In Salah, Algeria
TAF DAUI 222300Z 2300/2324 VRB02KT CAVOK BECMG 2301/2305 02010KT

Mar-23@
00:00 UTC

Mar-23 @ 00:00 UTC

Mar-23@
01:00 UTC

Mar-23 @ 01:00 UTC

TAF DAUI 222300Z 2300/2324 VRB02KT CAVOK

Expired

Wind
  • Variable at 2 KTS
Conditions
No significant weather
Cloud Levels
  • No significant clouds

Mar-23@
01:00 UTC

Mar-23 @ 01:00 UTC

Mar-24@
00:00 UTC

Mar-24 @ 00:00 UTC

BECMG 2301/2305 02010KT

Becoming

Becoming Conditions expected by Sat, Mar 23, 2019 @ 05:00 UTC

Wind
  • 020° at 10 KTS
Conditions
No significant weather
Cloud Levels
  • No significant clouds